createdAt,value
2019-03-21T00:00:12.348Z,26.20
2019-03-21T00:01:12.349Z,22.30
2019-03-21T00:02:12.343Z,22.10
2019-03-21T00:03:12.344Z,21.90
2019-03-21T00:04:12.309Z,20.30
2019-03-21T00:05:12.294Z,30.50
2019-03-21T00:06:12.278Z,21.70
2019-03-21T00:07:12.277Z,26.70
2019-03-21T00:08:12.262Z,20.40
2019-03-21T00:09:12.293Z,23.60
2019-03-21T00:10:12.242Z,25.70
2019-03-21T00:11:12.231Z,23.80
2019-03-21T00:12:12.216Z,24.20
2019-03-21T00:13:12.211Z,20.10
2019-03-21T00:14:12.217Z,22.60
2019-03-21T00:15:12.191Z,26.10
2019-03-21T00:16:13.573Z,20.90
2019-03-21T00:17:12.159Z,26.00
2019-03-21T00:18:12.145Z,21.70
2019-03-21T00:19:12.173Z,23.70
2019-03-21T00:20:12.145Z,25.20
2019-03-21T00:21:12.122Z,28.90
2019-03-21T00:22:12.113Z,24.90
2019-03-21T00:23:12.096Z,22.40
2019-03-21T00:24:12.089Z,25.70
2019-03-21T00:25:12.126Z,23.80
2019-03-21T00:26:12.059Z,24.40
2019-03-21T00:27:12.058Z,25.90
2019-03-21T00:28:12.052Z,19.70
2019-03-21T00:29:12.033Z,24.70
2019-03-21T00:30:12.055Z,25.30
2019-03-21T00:31:12.005Z,19.60
2019-03-21T00:32:11.992Z,24.40
2019-03-21T00:33:11.993Z,22.10
2019-03-21T00:34:11.976Z,22.70
2019-03-21T00:35:12.008Z,21.50
2019-03-21T00:36:11.967Z,26.50
2019-03-21T00:37:11.941Z,20.80
2019-03-21T00:38:11.944Z,20.30
2019-03-21T00:39:11.927Z,21.20
2019-03-21T00:40:11.915Z,28.70
2019-03-21T00:41:11.930Z,24.90
2019-03-21T00:42:11.896Z,19.90
2019-03-21T00:43:11.874Z,23.70
2019-03-21T00:44:18.072Z,23.30
2019-03-21T00:45:12.855Z,22.50
2019-03-21T00:46:11.864Z,20.10
2019-03-21T00:47:11.862Z,22.80
2019-03-21T00:48:11.838Z,25.50
2019-03-21T00:49:11.801Z,22.80
2019-03-21T00:50:11.788Z,22.10
2019-03-21T00:51:11.787Z,27.40
2019-03-21T00:52:11.791Z,23.40
2019-03-21T00:53:11.768Z,23.70
2019-03-21T00:54:11.769Z,25.20
2019-03-21T00:55:11.737Z,23.20
2019-03-21T00:56:11.737Z,26.70
2019-03-21T00:57:11.741Z,23.20
2019-03-21T00:58:11.770Z,24.30
2019-03-21T00:59:11.703Z,26.30
2019-03-21T01:00:11.697Z,23.20
2019-03-21T01:01:11.692Z,27.80
2019-03-21T01:02:11.672Z,21.50
2019-03-21T01:03:11.670Z,24.20
2019-03-21T01:04:11.639Z,24.60
2019-03-21T01:05:11.641Z,23.70
2019-03-21T01:06:11.627Z,20.40
2019-03-21T01:07:11.606Z,23.70
2019-03-21T01:08:11.629Z,22.10
2019-03-21T01:09:11.581Z,27.70
2019-03-21T01:10:11.574Z,24.80
2019-03-21T01:11:11.583Z,25.00
2019-03-21T01:12:11.558Z,23.10
2019-03-21T01:13:11.552Z,23.10
2019-03-21T01:14:11.587Z,22.70
2019-03-21T01:15:11.521Z,24.60
2019-03-21T01:16:11.513Z,23.80
2019-03-21T01:17:11.497Z,20.60
2019-03-21T01:18:11.491Z,21.70
2019-03-21T01:19:11.508Z,23.80
2019-03-21T01:20:11.470Z,24.40
2019-03-21T01:21:11.459Z,24.00
2019-03-21T01:22:11.450Z,28.80
2019-03-21T01:23:11.456Z,21.20
2019-03-21T01:24:11.459Z,23.40
2019-03-21T01:25:11.423Z,22.20
2019-03-21T01:26:11.411Z,24.70
2019-03-21T01:27:11.383Z,24.80
2019-03-21T01:28:11.376Z,27.20
2019-03-21T01:29:11.397Z,26.50
2019-03-21T01:30:11.362Z,23.70
2019-03-21T01:31:11.352Z,25.70
2019-03-21T01:32:11.347Z,23.30
2019-03-21T01:33:11.332Z,24.20
2019-03-21T01:34:11.334Z,22.80
2019-03-21T01:35:11.320Z,28.70
2019-03-21T01:36:11.296Z,25.30
2019-03-21T01:37:11.307Z,28.40
2019-03-21T01:38:11.276Z,25.40
2019-03-21T01:39:11.262Z,25.00
2019-03-21T01:40:11.272Z,22.30
2019-03-21T01:41:11.233Z,29.50
2019-03-21T01:42:11.229Z,24.80
2019-03-21T01:43:11.218Z,24.30
2019-03-21T01:44:11.219Z,25.30
2019-03-21T01:45:11.200Z,21.00
2019-03-21T01:46:11.207Z,22.40
2019-03-21T01:47:11.192Z,24.30
2019-03-21T01:48:11.167Z,25.30
2019-03-21T01:49:11.140Z,22.50
2019-03-21T01:50:11.131Z,26.80
2019-03-21T01:51:11.170Z,25.40
2019-03-21T01:52:11.126Z,26.50
2019-03-21T01:53:11.097Z,28.30
2019-03-21T01:54:11.087Z,25.90
2019-03-21T01:55:11.537Z,20.70
2019-03-21T01:56:11.074Z,28.20
2019-03-21T01:57:11.097Z,24.90
2019-03-21T01:58:11.059Z,26.50
2019-03-21T01:59:11.034Z,22.80
2019-03-21T02:00:11.025Z,27.70
2019-03-21T02:01:11.023Z,28.80
2019-03-21T02:02:11.030Z,26.70
2019-03-21T02:03:11.021Z,26.50
2019-03-21T02:04:10.996Z,25.40
2019-03-21T02:05:10.982Z,24.00
2019-03-21T02:06:10.965Z,25.20
2019-03-21T02:07:10.945Z,25.20
2019-03-21T02:08:10.963Z,24.60
2019-03-21T02:09:10.940Z,26.60
2019-03-21T02:10:10.937Z,23.00
2019-03-21T02:11:10.904Z,26.40
2019-03-21T02:12:10.894Z,23.70
2019-03-21T02:13:10.881Z,26.00
2019-03-21T02:14:10.891Z,30.60
2019-03-21T02:15:10.865Z,25.80
2019-03-21T02:16:10.854Z,30.20
2019-03-21T02:17:10.849Z,22.50
2019-03-21T02:18:10.857Z,25.60
2019-03-21T02:19:10.840Z,28.50
2019-03-21T02:20:10.804Z,26.30
2019-03-21T02:21:10.793Z,27.50
2019-03-21T02:22:10.785Z,31.40
2019-03-21T02:23:10.811Z,27.10
2019-03-21T02:24:10.779Z,25.20
2019-03-21T02:25:10.751Z,27.20
2019-03-21T02:26:10.735Z,26.40
2019-03-21T02:27:10.739Z,24.90
2019-03-21T02:28:10.734Z,29.60
2019-03-21T02:29:10.749Z,29.70
2019-03-21T02:30:10.706Z,29.30
2019-03-21T02:31:10.698Z,27.40
2019-03-21T02:32:10.677Z,29.50
2019-03-21T02:33:10.692Z,25.60
2019-03-21T02:34:10.661Z,25.20
2019-03-21T02:35:10.673Z,25.30
2019-03-21T02:36:10.654Z,29.00
2019-03-21T02:37:10.631Z,24.10
2019-03-21T02:38:10.627Z,29.80
2019-03-21T02:39:10.596Z,26.60
2019-03-21T02:40:10.601Z,29.40
2019-03-21T02:41:10.597Z,27.30
2019-03-21T02:42:10.573Z,26.40
2019-03-21T02:43:10.556Z,27.70
2019-03-21T02:44:10.550Z,31.70
2019-03-21T02:45:10.588Z,31.00
2019-03-21T02:46:10.639Z,31.10
2019-03-21T02:47:10.526Z,27.40
2019-03-21T02:48:10.506Z,28.50
2019-03-21T02:49:10.498Z,27.70
2019-03-21T02:50:10.477Z,30.40
2019-03-21T02:51:10.470Z,30.00
2019-03-21T02:52:10.463Z,29.70
2019-03-21T02:53:10.479Z,26.10
2019-03-21T02:54:10.432Z,31.10
2019-03-21T02:55:10.437Z,29.80
2019-03-21T02:56:10.428Z,28.70
2019-03-21T02:57:10.418Z,29.10
2019-03-21T02:58:10.391Z,27.70
2019-03-21T02:59:10.393Z,27.30
2019-03-21T03:00:10.375Z,31.20
2019-03-21T03:01:10.411Z,31.20
2019-03-21T03:02:10.378Z,28.10
2019-03-21T03:03:10.333Z,29.20
2019-03-21T03:04:10.327Z,29.20
2019-03-21T03:05:10.316Z,30.90
2019-03-21T03:06:10.296Z,32.50
2019-03-21T03:07:10.301Z,27.70
2019-03-21T03:08:10.300Z,25.90
2019-03-21T03:09:10.274Z,30.60
2019-03-21T03:10:10.263Z,29.20
2019-03-21T03:11:10.952Z,26.00
2019-03-21T03:12:10.231Z,27.80
2019-03-21T03:13:10.269Z,31.10
2019-03-21T03:14:10.221Z,30.40
2019-03-21T03:15:21.983Z,29.40
2019-03-21T03:16:11.315Z,30.40
2019-03-21T03:17:10.179Z,26.20
2019-03-21T03:18:10.163Z,29.70
2019-03-21T03:19:10.198Z,24.80
2019-03-21T03:20:10.154Z,26.80
2019-03-21T03:21:10.146Z,32.60
2019-03-21T03:22:10.166Z,30.90
2019-03-21T03:23:10.107Z,26.10
2019-03-21T03:24:10.119Z,26.90
2019-03-21T03:25:10.095Z,34.80
2019-03-21T03:26:10.101Z,30.30
2019-03-21T03:27:10.075Z,32.60
2019-03-21T03:28:10.065Z,27.50
2019-03-21T03:29:10.067Z,25.70
2019-03-21T03:30:10.075Z,25.60
2019-03-21T03:31:10.042Z,30.10
2019-03-21T03:32:10.028Z,27.60
2019-03-21T03:33:10.014Z,28.50
2019-03-21T03:34:10.024Z,27.70
2019-03-21T03:35:09.979Z,28.30
2019-03-21T03:36:09.992Z,31.50
2019-03-21T03:37:09.976Z,30.50
2019-03-21T03:38:09.950Z,27.60
2019-03-21T03:39:09.964Z,26.60
2019-03-21T03:40:09.932Z,33.70
2019-03-21T03:41:09.921Z,30.80
2019-03-21T03:42:09.918Z,27.30
2019-03-21T03:43:09.892Z,30.20
2019-03-21T03:44:09.908Z,28.70
2019-03-21T03:45:09.899Z,29.80
2019-03-21T03:46:09.861Z,29.60
2019-03-21T03:47:09.859Z,26.50
2019-03-21T03:48:09.834Z,28.50
2019-03-21T03:49:09.820Z,29.70
2019-03-21T03:50:09.835Z,27.70
2019-03-21T03:51:09.807Z,27.30
2019-03-21T03:52:09.794Z,28.60
2019-03-21T03:53:09.789Z,28.00
2019-03-21T03:54:09.777Z,29.80
2019-03-21T03:55:09.767Z,30.10
2019-03-21T03:56:09.764Z,30.60
2019-03-21T03:57:09.731Z,26.70
2019-03-21T03:58:09.751Z,26.50
2019-03-21T03:59:09.722Z,26.90
2019-03-21T04:00:09.729Z,29.80
2019-03-21T04:01:09.714Z,25.80
2019-03-21T04:02:09.709Z,27.10
2019-03-21T04:03:09.686Z,27.70
2019-03-21T04:04:09.665Z,26.10
2019-03-21T04:05:09.659Z,29.40
2019-03-21T04:06:09.648Z,28.20
2019-03-21T04:07:09.627Z,23.90
2019-03-21T04:08:09.633Z,27.50
2019-03-21T04:09:09.599Z,28.80
2019-03-21T04:10:09.586Z,26.70
2019-03-21T04:11:09.593Z,27.30
2019-03-21T04:12:09.597Z,26.80
2019-03-21T04:13:09.576Z,25.10
2019-03-21T04:14:09.552Z,31.90
2019-03-21T04:15:09.535Z,24.20
2019-03-21T04:16:09.523Z,22.80
2019-03-21T04:17:09.541Z,25.20
2019-03-21T04:18:09.516Z,29.80
2019-03-21T04:19:09.494Z,26.80
2019-03-21T04:20:09.478Z,23.00
2019-03-21T04:21:09.487Z,25.70
2019-03-21T04:22:09.593Z,27.70
2019-03-21T04:23:09.465Z,27.70
2019-03-21T04:24:09.444Z,28.20
2019-03-21T04:25:09.434Z,29.30
2019-03-21T04:26:09.444Z,25.10
2019-03-21T04:27:09.426Z,26.00
2019-03-21T04:28:09.393Z,25.50
2019-03-21T04:29:09.385Z,29.00
2019-03-21T04:30:09.367Z,25.60
2019-03-21T04:31:09.370Z,27.30
2019-03-21T04:32:09.360Z,23.00
2019-03-21T04:33:09.363Z,26.40
2019-03-21T04:34:09.328Z,27.30
2019-03-21T04:35:09.325Z,24.70
2019-03-21T04:36:09.308Z,31.20
2019-03-21T04:37:09.303Z,28.30
2019-03-21T04:38:09.282Z,24.90
2019-03-21T04:39:09.291Z,29.10
2019-03-21T04:40:09.287Z,28.40
2019-03-21T04:41:09.256Z,26.50
2019-03-21T04:42:09.240Z,26.40
2019-03-21T04:43:09.231Z,25.60
2019-03-21T04:44:09.237Z,22.60
2019-03-21T04:45:09.215Z,24.30
2019-03-21T04:46:09.202Z,27.20
2019-03-21T04:47:09.186Z,24.10
2019-03-21T04:48:09.165Z,28.60
2019-03-21T04:49:09.209Z,27.20
2019-03-21T04:50:09.185Z,24.60
2019-03-21T04:51:09.146Z,26.20
2019-03-21T04:52:09.136Z,28.50
2019-03-21T04:53:09.116Z,24.80
2019-03-21T04:54:09.109Z,28.00
2019-03-21T04:55:09.125Z,22.70
2019-03-21T04:56:09.096Z,27.60
2019-03-21T04:57:09.083Z,23.20
2019-03-21T04:58:09.067Z,26.90
2019-03-21T04:59:09.051Z,26.10
2019-03-21T05:00:09.079Z,23.90
2019-03-21T05:01:09.025Z,24.40
2019-03-21T05:02:09.026Z,25.90
2019-03-21T05:03:09.021Z,28.00
2019-03-21T05:04:09.001Z,25.30
2019-03-21T05:05:08.988Z,28.10
2019-03-21T05:06:08.989Z,23.80
2019-03-21T05:07:09.020Z,25.30
2019-03-21T05:08:08.969Z,28.00
2019-03-21T05:09:08.953Z,23.70
2019-03-21T05:10:08.939Z,28.50
2019-03-21T05:11:08.929Z,27.00
2019-03-21T05:12:08.903Z,28.00
2019-03-21T05:13:08.894Z,27.80
2019-03-21T05:14:08.880Z,28.50
2019-03-21T05:15:08.884Z,27.90
2019-03-21T05:16:14.627Z,23.90
2019-03-21T05:17:09.854Z,23.00
2019-03-21T05:18:08.848Z,29.30
2019-03-21T05:19:08.830Z,23.80
2019-03-21T05:20:08.828Z,28.50
2019-03-21T05:21:08.821Z,25.60
2019-03-21T05:22:08.822Z,28.90
2019-03-21T05:23:08.785Z,25.30
2019-03-21T05:24:08.776Z,28.40
2019-03-21T05:25:08.764Z,28.90
2019-03-21T05:26:08.746Z,30.00
2019-03-21T05:27:08.800Z,24.50
2019-03-21T05:28:08.742Z,26.20
2019-03-21T05:29:08.739Z,26.90
2019-03-21T05:30:08.719Z,26.70
2019-03-21T05:31:08.689Z,29.60
2019-03-21T05:32:08.684Z,25.70
2019-03-21T05:33:08.706Z,23.80
2019-03-21T05:34:08.667Z,27.50
2019-03-21T05:35:08.660Z,27.50
2019-03-21T05:36:08.658Z,25.20
2019-03-21T05:37:08.637Z,28.60
2019-03-21T05:38:08.625Z,26.60
2019-03-21T05:39:08.637Z,28.10
2019-03-21T05:40:08.630Z,27.60
2019-03-21T05:41:08.598Z,28.10
2019-03-21T05:42:08.594Z,27.10
2019-03-21T05:43:08.573Z,27.20
2019-03-21T05:44:08.573Z,24.50
2019-03-21T05:45:08.555Z,28.70
2019-03-21T05:46:08.548Z,29.50
2019-03-21T05:47:08.526Z,23.40
2019-03-21T05:48:08.507Z,29.10
2019-03-21T05:49:08.526Z,27.50
2019-03-21T05:50:08.490Z,28.70
2019-03-21T05:51:08.484Z,28.50
2019-03-21T05:52:08.476Z,27.40
2019-03-21T05:53:08.452Z,29.90
2019-03-21T05:54:08.448Z,29.20
2019-03-21T05:55:08.460Z,24.70
2019-03-21T05:56:08.432Z,28.60
2019-03-21T05:57:08.421Z,29.60
2019-03-21T05:58:08.402Z,27.40
2019-03-21T05:59:08.418Z,30.10
2019-03-21T06:00:08.416Z,29.00
2019-03-21T06:01:08.364Z,24.90
2019-03-21T06:02:08.366Z,27.40
2019-03-21T06:03:08.358Z,27.70
2019-03-21T06:04:08.340Z,28.00
2019-03-21T06:05:08.351Z,32.20
2019-03-21T06:06:08.321Z,24.60
2019-03-21T06:07:08.312Z,30.90
2019-03-21T06:08:08.293Z,25.60
2019-03-21T06:09:08.316Z,28.20
2019-03-21T06:10:08.277Z,31.20
2019-03-21T06:11:08.263Z,31.80
2019-03-21T06:12:08.247Z,31.50
2019-03-21T06:13:08.240Z,28.20
2019-03-21T06:14:08.235Z,28.20
2019-03-21T06:15:08.235Z,31.80
2019-03-21T06:16:08.214Z,31.60
2019-03-21T06:17:08.206Z,30.30
2019-03-21T06:18:08.193Z,32.80
2019-03-21T06:19:08.167Z,31.10
2019-03-21T06:20:08.177Z,27.20
2019-03-21T06:21:08.148Z,28.40
2019-03-21T06:22:08.141Z,26.90
2019-03-21T06:23:08.135Z,28.60
2019-03-21T06:24:08.122Z,32.10
2019-03-21T06:25:08.140Z,33.10
2019-03-21T06:26:08.092Z,28.20
2019-03-21T06:27:14.489Z,29.90
2019-03-21T06:28:09.106Z,31.70
2019-03-21T06:29:08.065Z,31.10
2019-03-21T06:30:08.054Z,28.40
2019-03-21T06:31:08.053Z,30.90
2019-03-21T06:32:08.029Z,28.30
2019-03-21T06:33:08.013Z,28.70
2019-03-21T06:34:07.998Z,29.90
2019-03-21T06:35:08.033Z,28.80
2019-03-21T06:36:08.023Z,34.70
2019-03-21T06:37:07.981Z,26.30
2019-03-21T06:38:07.971Z,33.00
2019-03-21T06:39:07.958Z,30.80
2019-03-21T06:40:07.941Z,26.60
2019-03-21T06:41:07.940Z,32.30
2019-03-21T06:42:07.962Z,27.70
2019-03-21T06:43:07.917Z,27.40
2019-03-21T06:44:07.904Z,31.10
2019-03-21T06:45:07.877Z,28.20
2019-03-21T06:46:07.877Z,32.10
2019-03-21T06:47:07.902Z,32.70
2019-03-21T06:48:07.862Z,26.00
2019-03-21T06:49:07.887Z,32.50
2019-03-21T06:50:07.836Z,29.00
2019-03-21T06:51:07.818Z,30.40
2019-03-21T06:52:07.819Z,30.10
2019-03-21T06:53:07.799Z,26.60
2019-03-21T06:54:07.802Z,26.00
2019-03-21T06:55:07.793Z,26.70
2019-03-21T06:56:07.770Z,27.20
2019-03-21T06:57:07.752Z,25.30
2019-03-21T06:58:07.757Z,30.20
2019-03-21T06:59:07.771Z,25.70
2019-03-21T07:00:07.775Z,24.40
2019-03-21T07:01:07.731Z,25.20
2019-03-21T07:02:07.721Z,27.20
2019-03-21T07:03:07.700Z,27.10
2019-03-21T07:04:07.752Z,24.90
2019-03-21T07:05:07.705Z,26.40
2019-03-21T07:06:07.685Z,28.90
2019-03-21T07:07:08.665Z,33.70
2019-03-21T07:08:07.645Z,27.20
2019-03-21T07:09:07.622Z,27.00
2019-03-21T07:10:07.649Z,29.70
2019-03-21T07:11:07.598Z,27.80
2019-03-21T07:12:07.590Z,28.00
2019-03-21T07:13:07.582Z,27.90
2019-03-21T07:14:07.577Z,24.90
2019-03-21T07:15:07.548Z,23.80
2019-03-21T07:16:09.423Z,26.40
2019-03-21T07:17:07.532Z,29.50
2019-03-21T07:18:07.526Z,28.00
2019-03-21T07:19:07.512Z,27.60
2019-03-21T07:20:07.507Z,31.00
2019-03-21T07:21:07.527Z,27.70
2019-03-21T07:22:07.488Z,26.20
2019-03-21T07:23:07.461Z,27.30
2019-03-21T07:24:07.456Z,26.30
2019-03-21T07:25:07.439Z,22.70
2019-03-21T07:26:07.427Z,27.30
2019-03-21T07:27:07.449Z,25.20
2019-03-21T07:28:07.458Z,27.80
2019-03-21T07:29:07.436Z,25.50
2019-03-21T07:30:07.555Z,26.20
2019-03-21T07:31:07.379Z,28.30
2019-03-21T07:32:08.254Z,26.40
2019-03-21T07:33:07.359Z,26.60
2019-03-21T07:34:07.354Z,30.30
2019-03-21T07:35:07.334Z,29.90
2019-03-21T07:36:07.321Z,28.20
2019-03-21T07:37:07.338Z,28.40
2019-03-21T07:38:07.311Z,28.40
2019-03-21T07:39:07.307Z,24.70
2019-03-21T07:40:07.296Z,29.80
2019-03-21T07:41:07.274Z,25.50
2019-03-21T07:42:07.290Z,24.60
2019-03-21T07:43:07.275Z,27.50
2019-03-21T07:44:07.239Z,29.00
2019-03-21T07:45:07.234Z,26.60
2019-03-21T07:46:07.216Z,25.10
2019-03-21T07:47:12.749Z,28.80
2019-03-21T07:48:08.185Z,29.30
2019-03-21T07:49:07.175Z,26.10
2019-03-21T07:50:07.175Z,28.00
2019-03-21T07:51:07.190Z,29.60
2019-03-21T07:52:07.153Z,30.10
2019-03-21T07:53:07.168Z,27.00
2019-03-21T07:54:07.149Z,30.20
2019-03-21T07:55:07.120Z,31.10
2019-03-21T07:56:07.110Z,28.30
2019-03-21T07:57:07.103Z,28.80
2019-03-21T07:58:07.189Z,29.30
2019-03-21T07:59:07.081Z,31.70
2019-03-21T08:00:07.062Z,27.10
2019-03-21T08:01:07.053Z,32.20
2019-03-21T08:02:07.026Z,29.70
2019-03-21T08:03:07.082Z,31.50
2019-03-21T08:04:07.024Z,34.70
2019-03-21T08:05:07.005Z,33.60
2019-03-21T08:06:07.001Z,28.90
2019-03-21T08:07:06.995Z,31.90
2019-03-21T08:08:06.974Z,31.70
2019-03-21T08:09:06.970Z,31.00
2019-03-21T08:10:06.944Z,30.60
2019-03-21T08:11:06.934Z,31.70
2019-03-21T08:12:06.929Z,32.40
2019-03-21T08:13:06.927Z,28.00
2019-03-21T08:14:06.951Z,31.70
2019-03-21T08:15:06.895Z,35.80
2019-03-21T08:16:06.869Z,33.70
2019-03-21T08:17:06.878Z,30.80
2019-03-21T08:18:06.875Z,34.40
2019-03-21T08:19:06.854Z,30.10
2019-03-21T08:20:06.830Z,31.40
2019-03-21T08:21:06.822Z,37.10
2019-03-21T08:22:06.816Z,34.90
2019-03-21T08:23:06.812Z,36.80
2019-03-21T08:24:06.828Z,29.60
2019-03-21T08:25:06.811Z,29.80
2019-03-21T08:26:06.789Z,29.80
2019-03-21T08:27:06.774Z,32.80
2019-03-21T08:28:06.775Z,31.20
2019-03-21T08:29:06.729Z,28.50
2019-03-21T08:30:06.752Z,35.80
2019-03-21T08:31:06.728Z,31.10
2019-03-21T08:32:06.712Z,29.80
2019-03-21T08:33:06.684Z,32.80
2019-03-21T08:34:06.682Z,31.90
2019-03-21T08:35:06.678Z,30.60
2019-03-21T08:36:06.673Z,29.70
2019-03-21T08:37:06.666Z,30.80
2019-03-21T08:38:06.643Z,37.20
2019-03-21T08:39:06.636Z,28.40
2019-03-21T08:40:06.614Z,33.00
2019-03-21T08:41:06.627Z,29.60
2019-03-21T08:42:06.586Z,29.10
2019-03-21T08:43:06.582Z,31.50
2019-03-21T08:44:06.589Z,29.10
2019-03-21T08:45:06.556Z,33.80
2019-03-21T08:46:06.580Z,29.90
2019-03-21T08:47:06.556Z,27.80
2019-03-21T08:48:06.523Z,28.30
2019-03-21T08:49:06.513Z,27.70
2019-03-21T08:50:06.514Z,32.00
2019-03-21T08:51:08.583Z,27.20
2019-03-21T08:52:06.495Z,23.80
2019-03-21T08:53:06.459Z,33.00
2019-03-21T08:54:06.453Z,31.70
2019-03-21T08:55:06.452Z,26.80
2019-03-21T08:56:06.447Z,26.70
2019-03-21T08:57:06.450Z,29.00
2019-03-21T08:58:06.417Z,30.60
2019-03-21T08:59:06.394Z,29.00
2019-03-21T09:00:06.401Z,28.70
2019-03-21T09:01:06.372Z,29.40
2019-03-21T09:02:06.406Z,32.50
2019-03-21T09:03:06.374Z,29.60
2019-03-21T09:04:06.350Z,25.50
2019-03-21T09:05:06.326Z,30.80
2019-03-21T09:06:06.322Z,26.30
2019-03-21T09:07:06.325Z,31.70
2019-03-21T09:08:06.339Z,25.50
2019-03-21T09:09:06.293Z,26.40
2019-03-21T09:10:08.017Z,28.90
2019-03-21T09:11:06.271Z,25.70
2019-03-21T09:12:06.259Z,26.30
2019-03-21T09:13:06.275Z,28.40
2019-03-21T09:14:06.236Z,24.30
2019-03-21T09:15:08.119Z,29.80
2019-03-21T09:16:06.222Z,27.90
2019-03-21T09:17:06.211Z,26.90
2019-03-21T09:18:06.194Z,26.70
2019-03-21T09:19:06.296Z,25.10
2019-03-21T09:20:06.161Z,27.60
2019-03-21T09:21:06.164Z,33.20
2019-03-21T09:22:06.173Z,26.20
2019-03-21T09:23:06.148Z,25.20
2019-03-21T09:24:06.371Z,23.20
2019-03-21T09:25:06.149Z,21.10
2019-03-21T09:26:06.100Z,24.80
2019-03-21T09:27:06.103Z,23.60
2019-03-21T09:28:06.081Z,24.50
2019-03-21T09:29:06.080Z,21.70
2019-03-21T09:30:06.065Z,22.50
2019-03-21T09:31:06.072Z,24.90
2019-03-21T09:32:06.040Z,21.70
2019-03-21T09:33:06.017Z,20.90
2019-03-21T09:34:06.011Z,23.60
2019-03-21T09:35:06.012Z,21.40
2019-03-21T09:36:06.034Z,20.50
2019-03-21T09:37:05.988Z,23.00
2019-03-21T09:38:05.972Z,21.50
2019-03-21T09:39:05.957Z,20.90
2019-03-21T09:40:05.952Z,20.80
2019-03-21T09:41:05.936Z,25.20
2019-03-21T09:42:05.954Z,23.10
2019-03-21T09:43:05.907Z,22.10
2019-03-21T09:44:05.892Z,22.20
2019-03-21T09:45:05.890Z,25.40
2019-03-21T09:46:05.879Z,22.80
2019-03-21T09:47:05.908Z,19.80
2019-03-21T09:48:05.866Z,21.10
2019-03-21T09:49:05.856Z,24.50
2019-03-21T09:50:05.843Z,19.90
2019-03-21T09:51:05.822Z,24.30
2019-03-21T09:52:05.828Z,21.80
2019-03-21T09:53:05.834Z,19.10
2019-03-21T09:54:09.927Z,22.40
2019-03-21T09:55:05.783Z,24.00
2019-03-21T09:56:05.761Z,24.70
2019-03-21T09:57:05.750Z,21.70
2019-03-21T09:58:05.784Z,22.00
2019-03-21T09:59:05.743Z,23.90
2019-03-21T10:00:05.736Z,22.70
2019-03-21T10:01:05.801Z,26.70
2019-03-21T10:02:05.737Z,20.30
2019-03-21T10:03:05.748Z,22.40
2019-03-21T10:04:05.706Z,22.50
2019-03-21T10:05:05.668Z,24.30
2019-03-21T10:06:05.664Z,25.70
2019-03-21T10:07:05.663Z,20.70
2019-03-21T10:08:05.646Z,21.90
2019-03-21T10:09:05.644Z,24.20
2019-03-21T10:10:05.619Z,19.80
2019-03-21T10:11:05.605Z,20.80
2019-03-21T10:12:05.602Z,24.30
2019-03-21T10:13:05.683Z,21.90
2019-03-21T10:14:05.603Z,21.90
2019-03-21T10:15:05.563Z,23.40
2019-03-21T10:16:05.543Z,27.40
2019-03-21T10:17:05.543Z,24.70
2019-03-21T10:18:05.545Z,21.00
2019-03-21T10:19:05.521Z,21.90
2019-03-21T10:20:05.518Z,25.80
2019-03-21T10:21:05.530Z,20.80
2019-03-21T10:22:05.510Z,24.90
2019-03-21T10:23:05.473Z,24.70
2019-03-21T10:24:05.483Z,22.90
2019-03-21T10:25:05.462Z,21.40
2019-03-21T10:26:05.452Z,26.20
2019-03-21T10:27:05.580Z,21.30
2019-03-21T10:28:05.429Z,24.20
2019-03-21T10:29:05.406Z,23.90
2019-03-21T10:30:05.395Z,26.10
2019-03-21T10:31:05.393Z,23.80
2019-03-21T10:32:13.858Z,21.10
2019-03-21T10:33:06.492Z,24.90
2019-03-21T10:34:05.366Z,24.40
2019-03-21T10:35:05.366Z,24.50
2019-03-21T10:36:05.331Z,21.80
2019-03-21T10:37:05.315Z,23.70
2019-03-21T10:38:05.335Z,22.60
2019-03-21T10:39:05.304Z,20.70
2019-03-21T10:40:05.303Z,19.90
2019-03-21T10:41:05.281Z,25.00
2019-03-21T10:42:05.263Z,23.80
2019-03-21T10:43:05.343Z,21.80
2019-03-21T10:44:05.255Z,22.80
2019-03-21T10:45:05.240Z,21.00
2019-03-21T10:46:05.238Z,19.30
2019-03-21T10:47:05.215Z,20.40
2019-03-21T10:48:05.193Z,22.00
2019-03-21T10:49:05.218Z,18.70
2019-03-21T10:50:05.201Z,23.10
2019-03-21T10:51:05.168Z,19.30
2019-03-21T10:52:05.165Z,25.70
2019-03-21T10:53:05.152Z,26.60
2019-03-21T10:54:05.168Z,19.50
2019-03-21T10:55:05.140Z,20.00
2019-03-21T10:56:05.107Z,19.60
2019-03-21T10:57:05.113Z,23.40
2019-03-21T10:58:05.107Z,20.10
2019-03-21T10:59:05.073Z,21.70
2019-03-21T11:00:05.095Z,17.70
2019-03-21T11:01:05.071Z,18.30
2019-03-21T11:02:07.468Z,21.40
2019-03-21T11:03:05.044Z,20.30
2019-03-21T11:04:05.068Z,20.20
2019-03-21T11:05:05.026Z,21.40
2019-03-21T11:06:05.028Z,18.90
2019-03-21T11:07:04.996Z,20.30
2019-03-21T11:08:04.981Z,19.50
2019-03-21T11:09:04.982Z,22.50
2019-03-21T11:10:04.956Z,17.90
2019-03-21T11:11:04.990Z,17.40
2019-03-21T11:12:04.956Z,19.40
2019-03-21T11:13:04.918Z,17.10
2019-03-21T11:14:04.993Z,18.40
2019-03-21T11:15:04.908Z,17.20
2019-03-21T11:16:04.934Z,18.80
2019-03-21T11:17:04.976Z,17.60
2019-03-21T11:18:04.889Z,17.70
2019-03-21T11:19:04.866Z,16.30
2019-03-21T11:20:04.902Z,17.60
2019-03-21T11:21:04.836Z,16.70
2019-03-21T11:22:06.584Z,17.50
2019-03-21T11:23:04.818Z,17.20
2019-03-21T11:24:04.803Z,17.00
2019-03-21T11:25:04.805Z,19.10
2019-03-21T11:26:04.783Z,17.40
2019-03-21T11:27:04.796Z,18.20
2019-03-21T11:28:04.758Z,16.10
2019-03-21T11:29:04.752Z,19.40
2019-03-21T11:30:15.443Z,18.90
2019-03-21T11:31:05.719Z,18.60
2019-03-21T11:32:04.714Z,20.60
2019-03-21T11:33:04.725Z,18.50
2019-03-21T11:34:04.691Z,25.00
2019-03-21T11:35:04.685Z,18.10
2019-03-21T11:36:04.673Z,18.40
2019-03-21T11:37:04.664Z,20.10
2019-03-21T11:38:04.691Z,19.10
2019-03-21T11:39:04.643Z,19.10
2019-03-21T11:40:04.618Z,16.20
2019-03-21T11:41:04.615Z,17.00
2019-03-21T11:42:04.618Z,19.20
2019-03-21T11:43:04.614Z,20.00
2019-03-21T11:44:04.625Z,21.00
2019-03-21T11:45:04.560Z,20.50
2019-03-21T11:46:04.572Z,18.80
2019-03-21T11:47:04.558Z,22.40
2019-03-21T11:48:04.555Z,17.20
2019-03-21T11:49:04.534Z,18.80
2019-03-21T11:50:04.537Z,19.10
2019-03-21T11:51:04.512Z,18.30
2019-03-21T11:52:04.493Z,21.80
2019-03-21T11:53:04.477Z,19.50
2019-03-21T11:54:04.458Z,17.50
2019-03-21T11:55:04.503Z,18.10
2019-03-21T11:56:04.451Z,18.80
2019-03-21T11:57:04.460Z,20.80
2019-03-21T11:58:04.431Z,19.40
2019-03-21T11:59:04.419Z,19.70
2019-03-21T12:00:04.418Z,18.00
2019-03-21T12:01:04.410Z,18.30
2019-03-21T12:02:04.391Z,16.90
2019-03-21T12:03:04.520Z,19.70
2019-03-21T12:04:04.363Z,16.50
2019-03-21T12:05:04.342Z,17.00
2019-03-21T12:06:04.350Z,17.10
2019-03-21T12:07:04.332Z,19.10
2019-03-21T12:08:04.318Z,15.70
2019-03-21T12:09:04.305Z,15.60
2019-03-21T12:10:04.302Z,17.60
2019-03-21T12:11:04.302Z,17.40
2019-03-21T12:12:04.277Z,16.40
2019-03-21T12:13:04.260Z,16.00
2019-03-21T12:14:04.248Z,17.50
2019-03-21T12:15:04.238Z,20.80
2019-03-21T12:16:04.242Z,19.60
2019-03-21T12:17:04.255Z,17.10
2019-03-21T12:18:04.200Z,18.80
2019-03-21T12:19:04.190Z,18.90
2019-03-21T12:20:04.207Z,19.80
2019-03-21T12:21:04.179Z,19.70
2019-03-21T12:22:04.180Z,17.80
2019-03-21T12:23:04.165Z,19.50
2019-03-21T12:24:04.123Z,22.50
2019-03-21T12:25:04.116Z,20.10
2019-03-21T12:26:04.112Z,22.10
2019-03-21T12:27:04.128Z,17.80
2019-03-21T12:28:04.094Z,18.30
2019-03-21T12:29:04.086Z,18.80
2019-03-21T12:30:04.076Z,20.60
2019-03-21T12:31:04.052Z,18.40
2019-03-21T12:32:04.068Z,18.30
2019-03-21T12:33:04.039Z,20.60
2019-03-21T12:34:04.049Z,19.20
2019-03-21T12:35:04.008Z,16.80
2019-03-21T12:36:04.005Z,20.30
2019-03-21T12:37:03.989Z,20.60
2019-03-21T12:38:03.999Z,21.40
2019-03-21T12:39:03.998Z,22.80
2019-03-21T12:40:03.964Z,23.60
2019-03-21T12:41:03.953Z,24.40
2019-03-21T12:42:03.994Z,22.60
2019-03-21T12:43:03.948Z,22.30
2019-03-21T12:44:03.930Z,23.40
2019-03-21T12:45:03.898Z,24.50
2019-03-21T12:46:03.899Z,25.40
2019-03-21T12:47:03.881Z,24.50
2019-03-21T12:48:03.873Z,21.40
2019-03-21T12:49:03.875Z,27.70
2019-03-21T12:50:03.848Z,25.00
2019-03-21T12:51:03.842Z,24.70
2019-03-21T12:52:03.837Z,24.60